Providence, Illinois
Current Conditions -  °F | °C
As of 8:50 AM on Friday 19 Dec 2014 (Local Time) from KC75 Reporting Station
Haze Haze  
Wind Chill: -7°   Ceiling: Unl
Heat Index: -7°   Visibility: 5mi
Dew Point: -8°   Wind: 0mph
Humidity: 89%   Direction: NA
Pressure: 30.33"   Gusts: NA
Location:  41.2776°N, 89.5099°W
Report Text: KC75 191450Z AUTO 00000KT 5SM BR SCT021 M07/M08 A3033 RMK AO2 T10681083
Loading
Personal Weather Stations






























Interactive Weather Map New forecast layout! Learn more

10-Day Weather Forecast

Advertisements
Track Severe Weather on mobile